Time;durP1;ratioP1;P1;durP2;ratioP2;P2;SDS_P1;SDS_P2;PMS_P1;PMS_P2;Temp;Humidity;BMP_temperature;BMP_pressure;BME280_temperature;BME280_humidity;BME280_pressure;Samples;Min_cycle;Max_cycle;Signal;HPM_P1;HPM_P2
2021/05/14 00:02:06;;;;;;;3.20;2.90;;;;;;;-139.48;100.00;61774.03;4994240;28;20053;-67
2021/05/14 00:04:50;;;;;;;3.17;2.40;;;;;;;-139.48;100.00;61774.03;4994561;28;20044;-67
2021/05/14 00:07:34;;;;;;;5.15;2.85;;;;;;;-139.48;100.00;61774.03;4993723;28;20080;-67
2021/05/14 00:10:21;;;;;;;2.50;2.30;;;;;;;-139.48;100.00;61774.03;4994871;28;20041;-67
2021/05/14 00:13:07;;;;;;;3.28;2.80;;;;;;;-139.48;100.00;61774.03;4993825;28;20403;-67
2021/05/14 00:15:52;;;;;;;3.08;2.47;;;;;;;-139.48;100.00;61774.03;4993481;28;20100;-67
2021/05/14 00:18:36;;;;;;;2.50;2.28;;;;;;;-139.48;100.00;61774.03;5015732;23;20061;-69
2021/05/14 00:21:20;;;;;;;2.90;2.60;;;;;;;-139.48;100.00;61774.03;4980208;28;20423;-69
2021/05/14 00:24:04;;;;;;;3.17;2.80;;;;;;;-139.48;100.00;61774.03;4993703;28;20052;-70
2021/05/14 00:26:48;;;;;;;3.08;2.67;;;;;;;-139.48;100.00;61774.03;4993276;28;20131;-69
2021/05/14 00:29:32;;;;;;;3.10;2.78;;;;;;;-139.48;100.00;61774.03;4993288;28;20057;-69
2021/05/14 00:32:17;;;;;;;3.28;2.50;;;;;;;-139.48;100.00;61774.03;4993826;28;20061;-69
2021/05/14 00:35:00;;;;;;;5.68;2.47;;;;;;;-139.48;100.00;61774.03;4993321;28;20049;-69
2021/05/14 00:37:44;;;;;;;6.13;3.20;;;;;;;-139.48;100.00;61774.03;4979605;28;20125;-69
2021/05/14 00:40:29;;;;;;;3.75;2.55;;;;;;;-139.48;100.00;61774.03;4979660;28;20509;-69
2021/05/14 00:43:13;;;;;;;3.72;2.88;;;;;;;-139.48;100.00;61774.03;4993189;28;20049;-69
2021/05/14 00:46:00;;;;;;;3.50;2.65;;;;;;;-139.48;100.00;61774.03;4993227;28;20053;-69
2021/05/14 00:48:44;;;;;;;4.10;2.63;;;;;;;-139.48;100.00;61774.03;4993197;28;20085;-69
2021/05/14 00:51:28;;;;;;;4.45;3.00;;;;;;;-139.48;100.00;61774.03;4992968;28;20092;-70
2021/05/14 00:54:13;;;;;;;4.25;2.90;;;;;;;-139.48;100.00;61774.03;4979767;28;20185;-70
2021/05/14 00:56:58;;;;;;;3.88;2.83;;;;;;;-139.48;100.00;61774.03;4992878;28;20101;-69
2021/05/14 00:59:44;;;;;;;3.15;2.85;;;;;;;-139.48;100.00;61774.03;4979186;28;20140;-70
2021/05/14 01:02:28;;;;;;;3.25;2.90;;;;;;;-139.48;100.00;61774.03;4993128;28;20530;-70
2021/05/14 01:05:12;;;;;;;5.35;3.10;;;;;;;-139.48;100.00;61774.03;4994035;28;20104;-70
2021/05/14 01:07:56;;;;;;;4.43;3.63;;;;;;;-139.48;100.00;61774.03;4992760;28;20085;-70
2021/05/14 01:10:41;;;;;;;9.02;3.17;;;;;;;-139.48;100.00;61774.03;4993769;28;20510;-70
2021/05/14 01:13:26;;;;;;;3.90;3.22;;;;;;;-139.48;100.00;61774.03;4993037;28;20045;-70
2021/05/14 01:16:10;;;;;;;4.05;2.97;;;;;;;-139.48;100.00;61774.03;4992772;28;20049;-70
2021/05/14 01:18:54;;;;;;;6.90;3.17;;;;;;;-139.48;100.00;61774.03;4997778;28;20053;-70
2021/05/14 01:21:38;;;;;;;5.03;3.20;;;;;;;-139.48;100.00;61774.03;4983036;28;20065;-69
2021/05/14 01:24:23;;;;;;;5.35;3.20;;;;;;;-139.48;100.00;61774.03;4997203;28;20056;-70
2021/05/14 01:27:07;;;;;;;5.75;3.30;;;;;;;-139.48;100.00;61774.03;4983198;28;20108;-69
2021/05/14 01:29:51;;;;;;;5.60;3.65;;;;;;;-139.48;100.00;61774.03;4997767;28;20526;-70
2021/05/14 01:32:35;;;;;;;4.45;2.47;;;;;;;-139.48;100.00;61774.03;4996858;28;20201;-69
2021/05/14 01:35:19;;;;;;;5.07;2.65;;;;;;;-139.48;100.00;61774.03;4996442;28;20101;-70
2021/05/14 01:38:03;;;;;;;5.72;2.85;;;;;;;-139.48;100.00;61774.03;4996876;28;20097;-69
2021/05/14 01:40:47;;;;;;;4.63;3.33;;;;;;;-139.48;100.00;61774.03;4997400;28;20061;-70
2021/05/14 01:43:31;;;;;;;3.40;2.92;;;;;;;-139.48;100.00;61774.03;4982688;28;20120;-70
2021/05/14 01:46:15;;;;;;;10.90;3.05;;;;;;;-139.48;100.00;61774.03;4996534;28;20049;-70
2021/05/14 01:48:59;;;;;;;4.80;2.95;;;;;;;-139.48;100.00;61774.03;4996546;28;20469;-70
2021/05/14 01:51:43;;;;;;;4.18;2.72;;;;;;;-139.48;100.00;61774.03;4996351;28;20045;-70
2021/05/14 01:54:27;;;;;;;3.30;3.00;;;;;;;-139.48;100.00;61774.03;4997679;28;20041;-70
2021/05/14 01:57:11;;;;;;;5.32;3.70;;;;;;;-139.48;100.00;61774.03;4996327;28;20052;-70
2021/05/14 01:59:55;;;;;;;6.03;3.50;;;;;;;-139.48;100.00;61774.03;4996434;28;20049;-70
2021/05/14 02:02:39;;;;;;;11.05;3.63;;;;;;;-139.48;100.00;61774.03;4996987;28;20455;-70
2021/05/14 02:05:23;;;;;;;4.68;3.03;;;;;;;-139.48;100.00;61774.03;4982412;28;20088;-70
2021/05/14 02:08:08;;;;;;;3.25;2.90;;;;;;;-139.48;100.00;61774.03;4995809;28;20053;-69
2021/05/14 02:10:52;;;;;;;4.57;3.47;;;;;;;-139.48;100.00;61774.03;4996410;28;20065;-70
2021/05/14 02:13:38;;;;;;;5.53;4.07;;;;;;;-139.48;100.00;61774.03;4996090;28;20065;-70
2021/05/14 02:16:22;;;;;;;5.10;3.97;;;;;;;-139.48;100.00;61774.03;4996021;28;20045;-70
2021/05/14 02:19:06;;;;;;;5.95;4.20;;;;;;;-139.48;100.00;61774.03;4996544;28;20459;-70
2021/05/14 02:21:50;;;;;;;5.38;3.65;;;;;;;-139.48;100.00;61774.03;4995902;28;20498;-69
2021/05/14 02:24:34;;;;;;;6.07;3.83;;;;;;;-139.48;100.00;61774.03;4982088;28;20049;-68
2021/05/14 02:27:19;;;;;;;4.38;3.53;;;;;;;-139.48;100.00;61774.03;4995763;28;20053;-70
2021/05/14 02:30:05;;;;;;;3.95;3.30;;;;;;;-139.48;100.00;61774.03;4994612;28;20053;-70
2021/05/14 02:32:49;;;;;;;4.38;3.42;;;;;;;-139.48;100.00;61774.03;4982100;28;20100;-69
2021/05/14 02:35:34;;;;;;;5.65;3.28;;;;;;;-139.48;100.00;61774.03;4996429;28;20049;-70
2021/05/14 02:38:18;;;;;;;6.13;3.20;;;;;;;-139.48;100.00;61774.03;4995457;28;20053;-70
2021/05/14 02:41:05;;;;;;;3.92;3.47;;;;;;;-139.48;100.00;61774.03;4995531;28;20495;-67
2021/05/14 02:43:49;;;;;;;4.43;3.20;;;;;;;-139.48;100.00;61774.03;4995550;28;20525;-70
2021/05/14 02:46:34;;;;;;;7.20;4.13;;;;;;;-139.48;100.00;61774.03;4995154;28;20073;-70
2021/05/14 02:49:18;;;;;;;5.18;2.70;;;;;;;-139.48;100.00;61774.03;4994979;28;20466;-70
2021/05/14 02:52:03;;;;;;;4.72;3.63;;;;;;;-139.48;100.00;61774.03;4995416;28;20096;-70
2021/05/14 02:54:47;;;;;;;4.28;3.20;;;;;;;-139.48;100.00;61774.03;4981798;28;20061;-70
2021/05/14 02:57:31;;;;;;;6.10;3.58;;;;;;;-139.48;100.00;61774.03;4981546;28;20041;-70
2021/05/14 03:00:15;;;;;;;6.45;3.42;;;;;;;-139.48;100.00;61774.03;4995021;28;20053;-70
2021/05/14 03:02:59;;;;;;;6.18;3.22;;;;;;;-139.48;100.00;61774.03;4996180;28;20100;-69
2021/05/14 03:05:43;;;;;;;3.90;3.05;;;;;;;-139.48;100.00;61774.03;4996042;28;20507;-67
2021/05/14 03:08:27;;;;;;;8.27;3.50;;;;;;;-139.48;100.00;61774.03;4995793;28;20088;-70
2021/05/14 03:11:11;;;;;;;4.30;3.30;;;;;;;-139.48;100.00;61774.03;4994771;28;20053;-70
2021/05/14 03:13:55;;;;;;;4.50;3.58;;;;;;;-139.48;100.00;61774.03;4981025;28;20096;-70
2021/05/14 03:16:39;;;;;;;4.10;3.20;;;;;;;-139.48;100.00;61774.03;4994726;28;20041;-71
2021/05/14 03:19:23;;;;;;;4.75;2.92;;;;;;;-139.48;100.00;61774.03;4980931;28;20061;-69
2021/05/14 03:22:07;;;;;;;4.18;3.30;;;;;;;-139.48;100.00;61774.03;4981079;28;20049;-71
2021/05/14 03:24:51;;;;;;;6.30;3.40;;;;;;;-139.48;100.00;61774.03;4995758;28;20061;-69
2021/05/14 03:27:35;;;;;;;5.85;3.58;;;;;;;-139.48;100.00;61774.03;4994568;28;20117;-70
2021/05/14 03:30:20;;;;;;;4.75;3.60;;;;;;;-139.48;100.00;61774.03;4994716;28;20045;-70
2021/05/14 03:33:04;;;;;;;6.93;3.53;;;;;;;-139.48;100.00;61774.03;4995324;28;20053;-71
2021/05/14 03:35:50;;;;;;;6.65;3.60;;;;;;;-139.48;100.00;61774.03;4994269;28;20510;-69
2021/05/14 03:38:35;;;;;;;5.32;3.38;;;;;;;-139.48;100.00;61774.03;4994483;28;20089;-70
2021/05/14 03:41:31;;;;;;;5.00;3.33;;;;;;;-139.48;100.00;61774.03;4980094;28;20052;-68
2021/05/14 03:44:15;;;;;;;6.78;3.67;;;;;;;-139.48;100.00;61774.03;4994350;28;20054;-68
2021/05/14 03:47:03;;;;;;;5.88;3.65;;;;;;;-139.48;100.00;61774.03;4994262;28;20490;-70
2021/05/14 03:49:47;;;;;;;4.82;3.53;;;;;;;-139.48;100.00;61774.03;4993855;28;20049;-70
2021/05/14 03:52:33;;;;;;;5.70;4.03;;;;;;;-139.48;100.00;61774.03;4993958;28;20048;-70
2021/05/14 03:55:17;;;;;;;4.90;3.42;;;;;;;-139.48;100.00;61774.03;4994204;28;20057;-70
2021/05/14 03:58:01;;;;;;;4.15;3.00;;;;;;;-139.48;100.00;61774.03;4994069;28;20550;-70
2021/05/14 04:00:45;;;;;;;7.75;4.28;;;;;;;-139.48;100.00;61774.03;4993908;28;20068;-70
2021/05/14 04:03:29;;;;;;;4.45;2.92;;;;;;;-139.48;100.00;61774.03;4980381;28;20049;-70
2021/05/14 04:06:13;;;;;;;4.30;2.90;;;;;;;-139.48;100.00;61774.03;4994857;28;20092;-70
2021/05/14 04:08:57;;;;;;;3.25;2.95;;;;;;;-139.48;100.00;61774.03;4993727;28;20569;-70
2021/05/14 04:14:44;;;;;;;5.78;3.50;;;;;;;-139.48;100.00;61774.03;4994760;28;20423;-70
2021/05/14 04:17:28;;;;;;;7.13;2.90;;;;;;;-139.48;100.00;61774.03;4994837;28;20045;-67
2021/05/14 04:20:12;;;;;;;3.55;2.95;;;;;;;-139.48;100.00;61774.03;4993721;28;20057;-70
2021/05/14 04:22:56;;;;;;;8.35;4.63;;;;;;;-139.48;100.00;61774.03;4993786;28;20185;-68
2021/05/14 04:25:40;;;;;;;5.22;3.88;;;;;;;-139.48;100.00;61774.03;4979848;28;20104;-70
2021/05/14 04:28:24;;;;;;;5.97;4.05;;;;;;;-139.48;100.00;61774.03;4994497;28;20101;-70
2021/05/14 04:31:08;;;;;;;6.43;3.58;;;;;;;-139.48;100.00;61774.03;4993325;28;20415;-70
2021/05/14 04:33:52;;;;;;;6.45;3.80;;;;;;;-139.48;100.00;61774.03;4993785;28;20407;-70
2021/05/14 04:36:36;;;;;;;5.32;3.67;;;;;;;-139.48;100.00;61774.03;4994488;28;20053;-70
2021/05/14 04:39:20;;;;;;;4.25;3.40;;;;;;;-139.48;100.00;61774.03;4993159;28;20053;-70
2021/05/14 04:42:04;;;;;;;9.40;4.50;;;;;;;-139.48;100.00;61774.03;4979714;28;20520;-68
2021/05/14 04:44:48;;;;;;;8.30;4.35;;;;;;;-139.48;100.00;61774.03;4979948;28;20049;-70
2021/05/14 04:47:34;;;;;;;6.03;4.55;;;;;;;-139.48;100.00;61774.03;4979344;28;20054;-68
2021/05/14 04:50:19;;;;;;;5.47;4.65;;;;;;;-139.48;100.00;61774.03;4994217;28;20518;-70
2021/05/14 04:53:08;;;;;;;6.88;4.38;;;;;;;-139.48;100.00;61774.03;4992718;28;20570;-70
2021/05/14 04:55:52;;;;;;;7.05;4.38;;;;;;;-139.48;100.00;61774.03;4994422;28;20092;-70
2021/05/14 04:58:36;;;;;;;6.30;3.78;;;;;;;-139.48;100.00;61774.03;4979374;28;20053;-69
2021/05/14 05:01:20;;;;;;;4.57;4.03;;;;;;;-139.48;100.00;61774.03;4992901;28;20100;-70
2021/05/14 05:04:04;;;;;;;7.53;5.15;;;;;;;-139.48;100.00;61774.03;4992857;28;20081;-70
2021/05/14 05:06:48;;;;;;;8.70;4.53;;;;;;;-139.48;100.00;61774.03;4994054;28;20162;-70
2021/05/14 05:09:32;;;;;;;9.57;4.60;;;;;;;-139.48;100.00;61774.03;4992848;28;20056;-69
2021/05/14 05:12:16;;;;;;;5.25;4.32;;;;;;;-139.48;100.00;61774.03;4993011;28;20061;-68
2021/05/14 05:15:00;;;;;;;4.97;4.47;;;;;;;-139.48;100.00;61774.03;4992777;28;20120;-70
2021/05/14 05:17:44;;;;;;;6.93;4.90;;;;;;;-139.48;100.00;61774.03;4993809;28;20466;-70
2021/05/14 05:20:28;;;;;;;7.63;4.68;;;;;;;-139.48;100.00;61774.03;4979511;28;20054;-69
2021/05/14 05:23:12;;;;;;;6.13;4.18;;;;;;;-139.48;100.00;61774.03;4992938;28;20054;-70
2021/05/14 05:25:55;;;;;;;5.57;4.00;;;;;;;-139.48;100.00;61774.03;4992578;28;20447;-70
2021/05/14 05:28:39;;;;;;;7.30;4.10;;;;;;;-139.48;100.00;61774.03;4993846;28;20411;-70
2021/05/14 05:31:23;;;;;;;5.38;4.10;;;;;;;-139.48;100.00;61774.03;4993868;28;20133;-70
2021/05/14 05:34:08;;;;;;;5.90;3.88;;;;;;;-139.48;100.00;61774.03;4993839;28;20463;-70
2021/05/14 05:36:52;;;;;;;5.05;3.65;;;;;;;-139.48;100.00;61774.03;4979264;28;20129;-67
2021/05/14 05:39:36;;;;;;;6.00;3.35;;;;;;;-139.48;100.00;61774.03;4992702;28;20126;-70
2021/05/14 05:42:20;;;;;;;5.20;3.85;;;;;;;-139.48;100.00;61774.03;4992793;28;20109;-70
2021/05/14 05:45:05;;;;;;;5.07;3.42;;;;;;;-139.48;100.00;61774.03;4978953;28;20053;-70
2021/05/14 05:47:49;;;;;;;9.50;3.20;;;;;;;-139.48;100.00;61774.03;4992601;28;20565;-70
2021/05/14 05:50:33;;;;;;;3.78;2.78;;;;;;;-139.48;100.00;61774.03;4992750;28;20520;-70
2021/05/14 05:53:17;;;;;;;5.63;2.63;;;;;;;-139.48;100.00;61774.03;4992977;28;20120;-68
2021/05/14 05:56:01;;;;;;;;;;;;;;;-139.48;100.00;61774.03;4993005;28;20077;-70
2021/05/14 05:58:45;;;;;;;3.30;2.33;;;;;;;-139.48;100.00;61774.03;4992479;28;19929;-69
2021/05/14 06:01:29;;;;;;;3.70;2.47;;;;;;;-139.48;100.00;61774.03;4992853;28;20045;-70
2021/05/14 06:04:13;;;;;;;2.60;2.33;;;;;;;-139.48;100.00;61774.03;4995549;28;20045;-70
2021/05/14 06:06:56;;;;;;;4.05;2.47;;;;;;;-139.48;100.00;61774.03;4995902;28;20104;-70
2021/05/14 06:09:40;;;;;;;2.58;2.13;;;;;;;-139.48;100.00;61774.03;4996065;28;20101;-69
2021/05/14 06:12:24;;;;;;;2.97;2.33;;;;;;;-139.48;100.00;61774.03;4996108;28;20045;-69
2021/05/14 06:15:09;;;;;;;7.47;2.38;;;;;;;-139.48;100.00;61774.03;4981971;28;20076;-69
2021/05/14 06:17:56;;;;;;;4.35;2.38;;;;;;;-139.48;100.00;61774.03;4982303;28;20097;-67
2021/05/14 06:20:29;;;;;;;;;;;;;;;-139.48;100.00;61774.03;5017741;22;20408;-65
2021/05/14 06:23:14;;;;;;;3.58;2.70;;;;;;;-139.48;100.00;61774.03;4995667;28;20005;-66
2021/05/14 06:25:57;;;;;;;3.33;2.72;;;;;;;-139.48;100.00;61774.03;4996007;28;20538;-65
2021/05/14 06:28:42;;;;;;;9.13;2.70;;;;;;;-139.48;100.00;61774.03;4995106;28;20068;-65
2021/05/14 06:31:25;;;;;;;4.75;2.40;;;;;;;-139.48;100.00;61774.03;4995090;28;20073;-66
2021/05/14 06:34:09;;;;;;;4.25;2.45;;;;;;;-139.48;100.00;61774.03;4995099;28;20049;-66
2021/05/14 06:36:54;;;;;;;2.40;2.17;;;;;;;-139.48;100.00;61774.03;4996023;28;20121;-65
2021/05/14 06:39:39;;;;;;;4.00;2.50;;;;;;;-139.48;100.00;61774.03;4996070;28;20101;-65
2021/05/14 06:42:23;;;;;;;2.22;1.70;;;;;;;-139.48;100.00;61774.03;4994953;28;20045;-66
2021/05/14 06:45:07;;;;;;;2.95;1.80;;;;;;;-139.48;100.00;61774.03;4994569;28;20061;-65
2021/05/14 06:47:51;;;;;;;;;;;;;;;-139.48;100.00;61774.03;4996260;28;20045;-65
2021/05/14 06:50:36;;;;;;;1.87;1.33;;;;;;;-139.48;100.00;61774.03;4981034;28;19924;-65
2021/05/14 06:53:20;;;;;;;2.85;1.40;;;;;;;-139.48;100.00;61774.03;4994540;28;20049;-65
2021/05/14 06:56:05;;;;;;;2.35;1.20;;;;;;;-139.48;100.00;61774.03;4981193;28;20100;-65
2021/05/14 06:58:49;;;;;;;3.15;1.67;;;;;;;-139.48;100.00;61774.03;4994465;28;20514;-65
2021/05/14 07:01:33;;;;;;;2.42;1.40;;;;;;;-139.48;100.00;61774.03;4981145;28;20073;-65
2021/05/14 07:04:17;;;;;;;1.85;1.38;;;;;;;-139.48;100.00;61774.03;4980966;28;20498;-65
2021/05/14 07:07:01;;;;;;;4.13;1.42;;;;;;;-139.48;100.00;61774.03;4994463;28;20510;-64
2021/05/14 07:09:45;;;;;;;1.58;1.30;;;;;;;-139.48;100.00;61774.03;4994309;28;20052;-65
2021/05/14 07:12:30;;;;;;;1.55;1.20;;;;;;;-139.48;100.00;61774.03;4994193;28;20077;-65
2021/05/14 07:15:14;;;;;;;2.08;1.20;;;;;;;-139.48;100.00;61774.03;4993351;28;20049;-65
2021/05/14 07:18:00;;;;;;;1.88;1.15;;;;;;;-139.48;100.00;61774.03;4980703;28;20137;-64
2021/05/14 07:20:44;;;;;;;2.20;1.20;;;;;;;-139.48;100.00;61774.03;4980675;28;20463;-65
2021/05/14 07:23:28;;;;;;;1.52;1.20;;;;;;;-139.48;100.00;61774.03;4994117;28;20088;-65
2021/05/14 07:26:12;;;;;;;1.75;1.20;;;;;;;-139.48;100.00;61774.03;4980276;28;20057;-65
2021/05/14 07:28:57;;;;;;;3.47;0.93;;;;;;;-139.48;100.00;61774.03;4995148;28;20053;-65
2021/05/14 07:31:41;;;;;;;2.15;1.10;;;;;;;-139.48;100.00;61774.03;4995010;28;20528;-65
2021/05/14 07:34:25;;;;;;;2.85;0.85;;;;;;;-139.48;100.00;61774.03;4993696;28;20104;-65
2021/05/14 07:37:09;;;;;;;2.75;0.98;;;;;;;-139.48;100.00;61774.03;4993656;28;20077;-66
2021/05/14 07:39:54;;;;;;;0.93;0.82;;;;;;;-139.48;100.00;61774.03;4994888;28;20069;-65
2021/05/14 07:42:38;;;;;;;1.73;1.13;;;;;;;-139.48;100.00;61774.03;4994840;28;20136;-66
2021/05/14 07:45:22;;;;;;;3.47;0.80;;;;;;;-139.48;100.00;61774.03;4994481;28;20057;-66
2021/05/14 07:48:19;;;;;;;1.00;0.90;;;;;;;-139.48;100.00;61774.03;4993594;28;20471;-66
2021/05/14 07:51:03;;;;;;;1.52;0.90;;;;;;;-139.48;100.00;61774.03;4993970;28;20183;-66
2021/05/14 07:53:47;;;;;;;1.40;1.00;;;;;;;-139.48;100.00;61774.03;4993457;28;20049;-66
2021/05/14 07:56:31;;;;;;;1.02;0.80;;;;;;;-139.48;100.00;61774.03;4993182;28;20100;-65
2021/05/14 07:59:15;;;;;;;2.22;0.63;;;;;;;-139.48;100.00;61774.03;4993060;28;20057;-65
2021/05/14 08:01:59;;;;;;;0.63;0.63;;;;;;;-139.48;100.00;61774.03;4994261;28;20053;-66
2021/05/14 08:04:43;;;;;;;4.85;1.00;;;;;;;-139.48;100.00;61774.03;4993146;28;20056;-66
2021/05/14 08:07:28;;;;;;;1.50;0.80;;;;;;;-139.48;100.00;61774.03;4993035;28;20137;-65
2021/05/14 08:10:13;;;;;;;1.38;0.75;;;;;;;-139.48;100.00;61774.03;4992894;28;20053;-65
2021/05/14 08:12:56;;;;;;;0.60;0.60;;;;;;;-139.48;100.00;61774.03;4979491;28;20057;-65
2021/05/14 08:15:40;;;;;;;0.90;0.70;;;;;;;-139.48;100.00;61774.03;4994143;28;20089;-65
2021/05/14 08:18:24;;;;;;;1.30;0.82;;;;;;;-139.48;100.00;61774.03;4993861;28;20209;-65
2021/05/14 08:21:08;;;;;;;1.75;0.88;;;;;;;-139.48;100.00;61774.03;4992952;28;20049;-66
2021/05/14 08:23:52;;;;;;;2.05;1.00;;;;;;;-139.48;100.00;61774.03;4994021;28;20138;-66
2021/05/14 08:26:38;;;;;;;4.63;1.38;;;;;;;-139.48;100.00;61774.03;4993805;28;20062;-66
2021/05/14 08:29:22;;;;;;;1.10;0.85;;;;;;;-139.48;100.00;61774.03;4993977;28;20173;-65
2021/05/14 08:32:06;;;;;;;1.77;1.00;;;;;;;-139.48;100.00;61774.03;4992598;28;20045;-65
2021/05/14 08:34:50;;;;;;;1.20;1.00;;;;;;;-139.48;100.00;61774.03;4992809;28;20092;-65
2021/05/14 08:37:36;;;;;;;2.20;0.80;;;;;;;-139.48;100.00;61774.03;4992520;28;20463;-65
2021/05/14 08:40:20;;;;;;;0.88;0.88;;;;;;;-139.48;100.00;61774.03;4992509;28;20050;-65
2021/05/14 08:43:04;;;;;;;1.60;1.00;;;;;;;-139.48;100.00;61774.03;4992574;28;20053;-65
2021/05/14 08:45:49;;;;;;;1.30;0.80;;;;;;;-139.48;100.00;61774.03;4992519;28;20530;-65
2021/05/14 08:48:36;;;;;;;2.45;0.80;;;;;;;-139.48;100.00;61774.03;4992405;28;20056;-65
2021/05/14 08:51:28;;;;;;;1.35;0.90;;;;;;;-139.48;100.00;61774.03;4993624;28;20549;-65
2021/05/14 08:54:12;;;;;;;2.60;0.70;;;;;;;-139.48;100.00;61774.03;4992615;28;20057;-65
2021/05/14 08:56:56;;;;;;;1.10;1.00;;;;;;;-139.48;100.00;61774.03;4993602;28;20049;-65
2021/05/14 08:59:40;;;;;;;2.22;0.70;;;;;;;-139.48;100.00;61774.03;4993435;28;20057;-65
2021/05/14 09:02:23;;;;;;;1.25;0.75;;;;;;;-139.48;100.00;61774.03;4992326;28;20049;-65
2021/05/14 09:05:26;;;;;;;6.97;1.25;;;;;;;-139.48;100.00;61774.03;4993331;28;20056;-65
2021/05/14 09:08:10;;;;;;;1.60;1.00;;;;;;;-139.48;100.00;61774.03;4993591;28;20113;-65
2021/05/14 09:10:54;;;;;;;1.10;0.68;;;;;;;-139.48;100.00;61774.03;4993625;28;20064;-65
2021/05/14 09:13:38;;;;;;;1.77;0.90;;;;;;;-139.48;100.00;61774.03;4978470;28;20053;-65
2021/05/14 09:16:37;;;;;;;0.60;0.60;;;;;;;-139.48;100.00;61774.03;4992200;28;20439;-65
2021/05/14 09:19:32;;;;;;;1.85;1.00;;;;;;;-139.48;100.00;61774.03;4992125;28;20538;-65
2021/05/14 09:22:18;;;;;;;0.70;0.60;;;;;;;-139.48;100.00;61774.03;4992244;28;20053;-65
2021/05/14 09:25:02;;;;;;;2.67;0.73;;;;;;;-139.48;100.00;61774.03;4978250;28;20058;-65
2021/05/14 09:27:46;;;;;;;1.35;0.68;;;;;;;-139.48;100.00;61774.03;4992899;28;20165;-65
2021/05/14 09:30:32;;;;;;;2.28;0.70;;;;;;;-139.48;100.00;61774.03;4992594;28;20129;-65
2021/05/14 09:33:25;;;;;;;1.05;0.70;;;;;;;-139.48;100.00;61774.03;4991875;28;20049;-65
2021/05/14 09:36:12;;;;;;;1.40;0.88;;;;;;;-139.48;100.00;61774.03;4991725;28;20046;-65
2021/05/14 09:38:59;;;;;;;0.90;0.60;;;;;;;-139.48;100.00;61774.03;4994661;28;20057;-65
2021/05/14 09:41:44;;;;;;;2.83;0.77;;;;;;;-139.48;100.00;61774.03;4996733;28;20111;-65
2021/05/14 09:44:28;;;;;;;1.00;0.82;;;;;;;-139.48;100.00;61774.03;4995800;28;20052;-65
2021/05/14 09:47:11;;;;;;;1.85;0.80;;;;;;;-139.48;100.00;61774.03;4982020;28;20045;-65
2021/05/14 09:49:55;;;;;;;1.45;1.02;;;;;;;-139.48;100.00;61774.03;4996286;28;20132;-65
2021/05/14 09:52:39;;;;;;;1.40;0.70;;;;;;;-139.48;100.00;61774.03;4981910;28;20053;-65
2021/05/14 09:55:23;;;;;;;1.83;0.70;;;;;;;-139.48;100.00;61774.03;4996627;28;20049;-66
2021/05/14 09:58:09;;;;;;;1.27;0.63;;;;;;;-139.48;100.00;61774.03;4996058;28;20050;-65
2021/05/14 10:00:53;;;;;;;0.57;0.50;;;;;;;-139.48;100.00;61774.03;4995425;28;20049;-65
2021/05/14 10:03:37;;;;;;;1.05;0.93;;;;;;;-139.48;100.00;61774.03;4995534;28;20041;-65
2021/05/14 10:06:22;;;;;;;1.70;1.00;;;;;;;-139.48;100.00;61774.03;4981291;28;20061;-65
2021/05/14 10:09:09;;;;;;;2.40;0.98;;;;;;;-139.48;100.00;61774.03;4995106;28;20065;-65
2021/05/14 10:11:53;;;;;;;2.35;1.00;;;;;;;-139.48;100.00;61774.03;4995174;28;20057;-65
2021/05/14 10:14:38;;;;;;;4.38;1.10;;;;;;;-139.48;100.00;61774.03;4995471;28;20049;-65
2021/05/14 10:17:22;;;;;;;1.60;0.90;;;;;;;-139.48;100.00;61774.03;4981596;28;20116;-64
2021/05/14 10:20:12;;;;;;;2.40;0.98;;;;;;;-139.48;100.00;61774.03;4994759;28;20104;-64
2021/05/14 10:22:58;;;;;;;1.67;0.90;;;;;;;-139.48;100.00;61774.03;4995980;28;20116;-65
2021/05/14 10:25:47;;;;;;;5.22;1.15;;;;;;;-139.48;100.00;61774.03;4995059;28;20478;-65
2021/05/14 10:28:38;;;;;;;1.13;0.70;;;;;;;-139.48;100.00;61774.03;4995056;28;20197;-65
2021/05/14 10:31:23;;;;;;;2.53;1.10;;;;;;;-139.48;100.00;61774.03;4995125;28;20130;-65
2021/05/14 10:34:15;;;;;;;0.80;0.80;;;;;;;-139.48;100.00;61774.03;4981067;28;20104;-65
2021/05/14 10:36:59;;;;;;;1.30;0.90;;;;;;;-139.48;100.00;61774.03;4995239;28;20116;-65
2021/05/14 10:39:43;;;;;;;2.22;0.80;;;;;;;-139.48;100.00;61774.03;4994891;28;20049;-65
2021/05/14 10:42:40;;;;;;;1.30;0.93;;;;;;;-139.48;100.00;61774.03;4994803;28;20069;-65
2021/05/14 10:45:59;;;;;;;2.85;0.82;;;;;;;-139.48;100.00;61774.03;4994446;28;20165;-65
2021/05/14 10:49:01;;;;;;;0.85;0.63;;;;;;;-139.48;100.00;61774.03;4986308;28;20073;-64
2021/05/14 10:51:51;;;;;;;1.95;0.60;;;;;;;-139.48;100.00;61774.03;4994441;28;20157;-65
2021/05/14 10:54:38;;;;;;;0.90;0.73;;;;;;;-139.48;100.00;61774.03;4994335;28;20057;-65
2021/05/14 10:57:40;;;;;;;1.92;0.80;;;;;;;-139.48;100.00;61774.03;4995126;28;20046;-65
2021/05/14 11:00:27;;;;;;;0.95;0.40;;;;;;;-139.48;100.00;61774.03;4994261;28;20100;-64
2021/05/14 11:03:15;;;;;;;1.23;0.50;;;;;;;-139.48;100.00;61774.03;4995247;28;20114;-65
2021/05/14 11:06:10;;;;;;;1.85;0.50;;;;;;;-139.48;100.00;61774.03;4994258;28;20201;-65
2021/05/14 11:08:59;;;;;;;0.47;0.45;;;;;;;-139.48;100.00;61774.03;4994151;28;20133;-65
2021/05/14 11:12:00;;;;;;;0.52;0.30;;;;;;;-139.48;100.00;61774.03;4994334;28;20518;-67
2021/05/14 11:14:48;;;;;;;1.05;0.60;;;;;;;-139.48;100.00;61774.03;4994564;28;20109;-64
2021/05/14 11:17:32;;;;;;;1.10;0.45;;;;;;;-139.48;100.00;61774.03;4994146;28;20045;-65
2021/05/14 11:20:23;;;;;;;0.40;0.40;;;;;;;-139.48;100.00;61774.03;4994655;28;20057;-64
2021/05/14 11:23:29;;;;;;;1.63;0.57;;;;;;;-139.48;100.00;61774.03;4995240;28;20052;-65
2021/05/14 11:26:18;;;;;;;2.95;0.40;;;;;;;-139.48;100.00;61774.03;4993952;28;20128;-65
2021/05/14 11:29:02;;;;;;;0.80;0.60;;;;;;;-139.48;100.00;61774.03;4994820;28;20132;-65
2021/05/14 11:31:46;;;;;;;3.80;0.50;;;;;;;-139.48;100.00;61774.03;4995223;28;20085;-65
2021/05/14 11:34:30;;;;;;;2.40;0.38;;;;;;;-139.48;100.00;61774.03;4994948;28;20530;-64
2021/05/14 11:37:18;;;;;;;0.75;0.60;;;;;;;-139.48;100.00;61774.03;4993856;28;20052;-65
2021/05/14 11:40:17;;;;;;;0.68;0.60;;;;;;;-139.48;100.00;61774.03;4979751;28;20423;-65
2021/05/14 11:43:04;;;;;;;1.02;0.50;;;;;;;-139.48;100.00;61774.03;4993692;28;20104;-65
2021/05/14 11:45:49;;;;;;;3.30;0.60;;;;;;;-139.48;100.00;61774.03;4993832;28;20108;-65
2021/05/14 11:48:33;;;;;;;4.50;0.60;;;;;;;-139.48;100.00;61774.03;4979749;28;20153;-66
2021/05/14 11:51:17;;;;;;;1.60;0.80;;;;;;;-139.48;100.00;61774.03;4992984;28;20036;-65
2021/05/14 11:54:14;;;;;;;0.80;0.60;;;;;;;-139.48;100.00;61774.03;4993257;28;20057;-65
2021/05/14 11:57:00;;;;;;;0.50;0.50;;;;;;;-139.48;100.00;61774.03;4994673;28;20455;-65
2021/05/14 11:59:44;;;;;;;0.82;0.50;;;;;;;-139.48;100.00;61774.03;4979548;28;20109;-65
2021/05/14 12:02:39;;;;;;;2.28;0.43;;;;;;;-139.48;100.00;61774.03;4993196;28;20053;-65
2021/05/14 12:05:24;;;;;;;2.28;0.50;;;;;;;-139.48;100.00;61774.03;4994437;28;20088;-65
2021/05/14 12:08:09;;;;;;;2.15;0.80;;;;;;;-139.48;100.00;61774.03;4994041;28;20415;-65
2021/05/14 12:10:55;;;;;;;1.02;0.80;;;;;;;-139.48;100.00;61774.03;4993002;28;20057;-65
2021/05/14 12:13:41;;;;;;;2.47;0.60;;;;;;;-139.48;100.00;61774.03;4993232;28;20046;-65
2021/05/14 12:16:25;;;;;;;0.70;0.50;;;;;;;-139.48;100.00;61774.03;4994176;28;20044;-64
2021/05/14 12:19:09;;;;;;;0.40;0.40;;;;;;;-139.48;100.00;61774.03;4993056;28;20057;-63
2021/05/14 12:21:53;;;;;;;1.30;0.50;;;;;;;-139.48;100.00;61774.03;4994399;28;20073;-64
2021/05/14 12:24:39;;;;;;;0.55;0.55;;;;;;;-139.48;100.00;61774.03;4979181;28;20096;-63
2021/05/14 12:27:22;;;;;;;2.50;0.60;;;;;;;-139.48;100.00;61774.03;4992896;28;20372;-62
2021/05/14 12:30:09;;;;;;;3.20;0.50;;;;;;;-139.48;100.00;61774.03;4993879;28;20057;-63
2021/05/14 12:32:57;;;;;;;0.98;0.35;;;;;;;-139.48;100.00;61774.03;4992690;28;20045;-63
2021/05/14 12:35:57;;;;;;;1.55;0.50;;;;;;;-139.48;100.00;61774.03;4978975;28;20057;-63